Time;durP1;ratioP1;P1;durP2;ratioP2;P2;SDS_P1;SDS_P2;PMS_P1;PMS_P2;Temp;Humidity;BMP_temperature;BMP_pressure;BME280_temperature;BME280_humidity;BME280_pressure;Samples;Min_cycle;Max_cycle;Signal;HPM_P1;HPM_P2
2021/07/13 00:00:17;;;;;;;1.52;1.27;;;25.10;46.20;;;;;;5023483;28;20203;-45
2021/07/13 00:02:43;;;;;;;1.38;1.27;;;25.10;46.20;;;;;;5016857;28;20201;-45
2021/07/13 00:05:10;;;;;;;1.50;1.40;;;25.00;46.10;;;;;;5027006;28;20226;-46
2021/07/13 00:07:36;;;;;;;1.40;1.30;;;25.00;46.10;;;;;;5016677;28;20281;-47
2021/07/13 00:10:03;;;;;;;1.52;1.40;;;25.00;46.10;;;;;;5013955;28;20207;-44
2021/07/13 00:12:29;;;;;;;1.50;1.40;;;25.10;46.10;;;;;;5030678;28;20219;-43
2021/07/13 00:14:55;;;;;;;1.40;1.30;;;25.00;46.10;;;;;;5011420;28;20208;-46
2021/07/13 00:17:22;;;;;;;1.60;1.50;;;25.10;46.20;;;;;;5012962;28;20283;-48
2021/07/13 00:19:48;;;;;;;1.52;1.42;;;25.10;46.20;;;;;;5023121;28;20223;-43
2021/07/13 00:22:15;;;;;;;1.48;1.38;;;25.00;46.10;;;;;;5010351;28;20290;-46
2021/07/13 00:24:42;;;;;;;1.10;1.10;;;25.10;46.20;;;;;;5018124;28;20241;-45
2021/07/13 00:27:08;;;;;;;1.33;1.23;;;25.00;46.10;;;;;;5014916;28;20610;-47
2021/07/13 00:29:34;;;;;;;1.80;1.70;;;25.10;46.10;;;;;;5026873;28;20525;-43
2021/07/13 00:32:01;;;;;;;1.30;1.20;;;25.10;46.10;;;;;;5020165;28;20227;-49
2021/07/13 00:34:27;;;;;;;1.80;1.40;;;25.00;46.00;;;;;;5011486;28;20207;-49
2021/07/13 00:36:54;;;;;;;1.45;1.35;;;25.10;46.10;;;;;;5018601;28;20203;-45
2021/07/13 00:39:20;;;;;;;1.40;1.30;;;25.10;46.10;;;;;;5011729;28;20203;-50
2021/07/13 00:41:47;;;;;;;1.20;1.20;;;25.00;46.10;;;;;;5017474;28;20233;-49
2021/07/13 00:44:13;;;;;;;1.10;1.10;;;25.10;46.10;;;;;;5012102;28;20227;-47
2021/07/13 00:46:39;;;;;;;1.70;1.60;;;25.00;46.00;;;;;;5017668;28;20205;-49
2021/07/13 00:49:06;;;;;;;1.52;1.42;;;25.00;46.10;;;;;;5012964;28;20203;-49
2021/07/13 00:51:32;;;;;;;1.40;1.30;;;25.00;46.10;;;;;;5016140;28;20304;-49
2021/07/13 00:53:59;;;;;;;1.40;1.30;;;25.00;46.10;;;;;;5029473;28;20206;-52
2021/07/13 00:56:25;;;;;;;1.40;1.30;;;25.10;46.10;;;;;;5021894;28;20195;-46
2021/07/13 00:58:52;;;;;;;1.40;1.30;;;25.00;46.10;;;;;;5013123;28;20224;-48
2021/07/13 01:01:18;;;;;;;1.25;1.20;;;25.00;46.10;;;;;;5020607;28;20227;-44
2021/07/13 01:03:45;;;;;;;1.40;1.30;;;25.00;46.10;;;;;;5026703;28;20214;-47
2021/07/13 01:06:12;;;;;;;1.35;1.25;;;25.00;46.10;;;;;;5005413;28;20235;-46
2021/07/13 01:08:39;;;;;;;1.40;1.30;;;25.00;46.10;;;;;;4999715;28;20199;-43
2021/07/13 01:11:07;;;;;;;1.70;1.60;;;25.00;46.10;;;;;;5010837;28;20227;-49
2021/07/13 01:13:33;;;;;;;1.48;1.38;;;25.00;46.10;;;;;;5012515;28;20203;-43
2021/07/13 01:16:00;;;;;;;1.50;1.40;;;25.00;46.00;;;;;;5010934;28;20547;-44
2021/07/13 01:18:27;;;;;;;1.55;1.40;;;25.00;46.00;;;;;;5012239;28;20207;-43
2021/07/13 01:20:54;;;;;;;1.40;1.30;;;25.00;46.10;;;;;;5011036;28;20227;-43
2021/07/13 01:23:20;;;;;;;1.42;1.30;;;25.00;46.20;;;;;;5025561;28;20228;-46
2021/07/13 01:25:47;;;;;;;1.83;1.30;;;25.00;46.20;;;;;;5016002;28;20256;-45
2021/07/13 01:28:13;;;;;;;1.40;1.30;;;25.00;46.20;;;;;;5015037;28;20274;-46
2021/07/13 01:30:40;;;;;;;1.30;1.20;;;25.10;46.20;;;;;;5010651;28;20306;-48
2021/07/13 01:33:06;;;;;;;1.48;1.38;;;25.00;46.20;;;;;;5018905;28;20218;-44
2021/07/13 01:35:33;;;;;;;1.20;1.10;;;25.00;46.20;;;;;;5026296;28;20206;-43
2021/07/13 01:37:59;;;;;;;1.27;1.25;;;25.00;46.20;;;;;;5015121;28;20225;-45
2021/07/13 01:40:25;;;;;;;1.60;1.50;;;25.00;46.20;;;;;;5019171;28;20591;-45
2021/07/13 01:42:52;;;;;;;1.10;1.00;;;25.00;46.20;;;;;;5033020;28;20654;-45
2021/07/13 01:45:18;;;;;;;1.67;1.27;;;25.00;46.20;;;;;;5025100;28;20227;-49
2021/07/13 01:47:45;;;;;;;1.42;1.30;;;25.00;46.20;;;;;;5017887;28;20194;-46
2021/07/13 01:50:11;;;;;;;1.60;1.50;;;25.00;46.20;;;;;;5014545;28;20266;-43
2021/07/13 01:52:38;;;;;;;1.40;1.30;;;25.00;46.20;;;;;;5018419;28;20573;-46
2021/07/13 01:55:04;;;;;;;1.50;1.40;;;25.00;46.20;;;;;;5018236;28;20650;-46
2021/07/13 01:57:30;;;;;;;1.30;1.20;;;25.00;46.20;;;;;;5017602;28;20681;-43
2021/07/13 01:59:58;;;;;;;1.55;1.45;;;25.00;46.20;;;;;;5025619;28;20615;-49
2021/07/13 02:02:24;;;;;;;1.42;1.33;;;25.00;46.20;;;;;;5013870;28;20234;-46
2021/07/13 02:04:50;;;;;;;1.40;1.30;;;25.00;46.20;;;;;;5024266;28;20227;-48
2021/07/13 02:07:17;;;;;;;1.30;1.20;;;25.00;46.10;;;;;;5013896;28;20562;-44
2021/07/13 02:09:44;;;;;;;1.20;1.10;;;25.00;46.10;;;;;;5014732;28;20207;-44
2021/07/13 02:12:10;;;;;;;1.30;1.20;;;25.00;46.20;;;;;;5014101;28;20203;-49
2021/07/13 02:14:36;;;;;;;1.77;1.40;;;25.00;46.20;;;;;;5028784;28;20228;-48
2021/07/13 02:17:03;;;;;;;1.50;1.40;;;25.00;46.20;;;;;;5032808;28;20202;-46
2021/07/13 02:19:29;;;;;;;1.30;1.20;;;25.00;46.20;;;;;;5030002;28;20208;-47
2021/07/13 02:21:56;;;;;;;1.40;1.30;;;25.00;46.30;;;;;;5016848;28;20222;-49
2021/07/13 02:24:22;;;;;;;1.60;1.50;;;25.00;46.30;;;;;;5023229;28;20232;-42
2021/07/13 02:26:49;;;;;;;1.27;1.20;;;25.00;46.30;;;;;;5026313;28;20572;-44
2021/07/13 02:29:15;;;;;;;2.08;1.40;;;25.00;46.30;;;;;;5016856;28;20685;-46
2021/07/13 02:31:42;;;;;;;1.35;1.25;;;25.00;46.30;;;;;;5015419;28;20226;-45
2021/07/13 02:34:08;;;;;;;1.40;1.30;;;25.00;46.30;;;;;;5029865;28;20209;-45
2021/07/13 02:36:34;;;;;;;1.40;1.30;;;25.00;46.30;;;;;;5020136;28;20207;-44
2021/07/13 02:39:01;;;;;;;1.30;1.20;;;25.00;46.30;;;;;;5015154;28;20214;-50
2021/07/13 02:41:27;;;;;;;1.50;1.20;;;25.00;46.30;;;;;;5024557;28;20302;-46
2021/07/13 02:43:54;;;;;;;1.45;1.35;;;25.00;46.30;;;;;;5021367;28;20580;-45
2021/07/13 02:46:20;;;;;;;1.30;1.20;;;25.00;46.30;;;;;;5013829;28;20673;-48
2021/07/13 02:48:47;;;;;;;1.40;1.30;;;25.00;46.30;;;;;;5018768;28;20387;-45
2021/07/13 02:51:13;;;;;;;1.13;1.00;;;25.00;46.30;;;;;;5017717;28;20626;-48
2021/07/13 02:53:39;;;;;;;1.65;1.50;;;25.00;46.30;;;;;;5014937;28;20671;-49
2021/07/13 02:56:06;;;;;;;1.40;1.20;;;25.00;46.40;;;;;;5016218;28;20671;-50
2021/07/13 02:58:32;;;;;;;1.65;1.55;;;25.00;46.40;;;;;;5027919;28;20216;-45
2021/07/13 03:00:59;;;;;;;1.38;1.27;;;25.00;46.40;;;;;;5031813;28;20324;-50
2021/07/13 03:03:25;;;;;;;1.38;1.27;;;25.00;46.40;;;;;;5015033;28;20207;-45
2021/07/13 03:05:52;;;;;;;1.25;1.17;;;25.00;46.40;;;;;;5003958;28;20227;-46
2021/07/13 03:08:18;;;;;;;1.15;1.10;;;25.00;46.40;;;;;;5011200;28;20213;-46
2021/07/13 03:10:45;;;;;;;1.50;1.40;;;25.00;46.40;;;;;;5012881;28;20221;-48
2021/07/13 03:13:11;;;;;;;1.33;1.23;;;25.00;46.50;;;;;;5013032;28;20211;-49
2021/07/13 03:15:38;;;;;;;1.50;1.40;;;25.00;46.50;;;;;;5025312;28;20207;-46
2021/07/13 03:18:04;;;;;;;1.40;1.30;;;25.00;46.50;;;;;;5022478;28;20293;-42
2021/07/13 03:20:31;;;;;;;1.45;1.35;;;25.00;46.50;;;;;;5012871;28;20254;-44
2021/07/13 03:22:57;;;;;;;1.20;1.10;;;25.00;46.50;;;;;;5014034;28;20205;-46
2021/07/13 03:25:24;;;;;;;2.13;1.35;;;25.00;46.50;;;;;;5019935;28;20328;-46
2021/07/13 03:27:50;;;;;;;1.30;1.20;;;25.00;46.50;;;;;;5021208;28;21018;-46
2021/07/13 03:30:17;;;;;;;1.45;1.17;;;25.00;46.50;;;;;;5017994;28;20596;-48
2021/07/13 03:32:43;;;;;;;1.38;1.27;;;25.00;46.50;;;;;;5023322;28;20656;-44
2021/07/13 03:35:09;;;;;;;1.40;1.30;;;25.00;46.50;;;;;;5023086;28;20209;-47
2021/07/13 03:37:36;;;;;;;2.78;1.30;;;25.00;46.50;;;;;;5027566;28;20213;-45
2021/07/13 03:40:02;;;;;;;1.30;1.20;;;25.00;46.50;;;;;;5030774;28;20656;-48
2021/07/13 03:42:29;;;;;;;1.40;1.30;;;25.00;46.60;;;;;;5026453;28;20558;-45
2021/07/13 03:44:56;;;;;;;1.13;1.13;;;25.00;46.50;;;;;;5026514;28;20226;-46
2021/07/13 03:47:22;;;;;;;1.42;1.30;;;25.00;46.60;;;;;;5024852;28;20643;-43
2021/07/13 03:49:49;;;;;;;1.40;1.30;;;25.00;46.60;;;;;;5012777;28;20318;-48
2021/07/13 03:52:15;;;;;;;1.25;1.15;;;25.00;47.30;;;;;;5013607;28;20202;-48
2021/07/13 03:54:41;;;;;;;1.13;1.08;;;25.00;46.60;;;;;;5012466;28;20199;-46
2021/07/13 03:57:08;;;;;;;1.33;1.23;;;25.00;46.60;;;;;;5025860;28;20206;-43
2021/07/13 03:59:34;;;;;;;1.45;1.35;;;25.00;46.60;;;;;;5031131;28;20226;-44
2021/07/13 04:02:01;;;;;;;1.30;1.20;;;25.00;46.70;;;;;;5020327;28;20298;-43
2021/07/13 04:04:27;;;;;;;1.42;1.30;;;25.00;46.60;;;;;;5011858;28;20238;-42
2021/07/13 04:06:54;;;;;;;1.40;1.30;;;25.00;46.60;;;;;;5020623;28;20240;-42
2021/07/13 04:09:20;;;;;;;1.95;1.20;;;25.00;46.60;;;;;;5012138;28;20199;-43
2021/07/13 04:11:46;;;;;;;2.00;1.30;;;25.00;46.60;;;;;;5022677;28;20216;-47
2021/07/13 04:14:13;;;;;;;1.85;1.20;;;25.00;46.60;;;;;;5018124;28;20263;-41
2021/07/13 04:16:39;;;;;;;1.27;1.17;;;25.00;46.60;;;;;;5008589;28;20332;-43
2021/07/13 04:19:06;;;;;;;1.48;1.38;;;25.00;46.60;;;;;;5020820;28;20202;-46
2021/07/13 04:21:32;;;;;;;1.30;1.10;;;25.00;46.70;;;;;;5016043;28;20206;-45
2021/07/13 04:23:59;;;;;;;1.27;1.17;;;25.00;46.70;;;;;;5018359;28;20206;-44
2021/07/13 04:26:25;;;;;;;1.30;1.20;;;25.00;46.70;;;;;;5017318;28;20236;-43
2021/07/13 04:28:51;;;;;;;1.60;1.50;;;25.00;46.70;;;;;;5009710;28;20203;-44
2021/07/13 04:31:18;;;;;;;1.40;1.30;;;25.00;46.70;;;;;;5011217;28;20223;-42
2021/07/13 04:33:44;;;;;;;1.23;1.15;;;25.00;46.70;;;;;;5031281;28;20206;-45
2021/07/13 04:36:11;;;;;;;1.60;1.10;;;25.00;46.70;;;;;;5017834;28;20203;-45
2021/07/13 04:38:37;;;;;;;1.17;1.10;;;25.00;46.70;;;;;;5027038;28;20209;-47
2021/07/13 04:41:04;;;;;;;1.40;1.30;;;25.00;46.70;;;;;;5022788;28;20229;-44
2021/07/13 04:43:30;;;;;;;1.50;1.40;;;25.00;46.70;;;;;;5029500;28;20210;-49
2021/07/13 04:45:57;;;;;;;1.30;1.20;;;25.00;46.70;;;;;;5017955;28;20308;-42
2021/07/13 04:48:23;;;;;;;1.40;1.30;;;25.00;46.70;;;;;;5011111;28;20210;-46
2021/07/13 04:50:49;;;;;;;1.08;1.00;;;25.00;46.70;;;;;;5011867;28;20364;-43
2021/07/13 04:53:16;;;;;;;1.30;1.20;;;25.00;46.70;;;;;;5011688;28;20207;-48
2021/07/13 04:55:42;;;;;;;1.40;1.30;;;25.00;46.70;;;;;;5010196;28;20207;-45
2021/07/13 04:58:09;;;;;;;1.40;1.30;;;25.00;46.70;;;;;;5018636;28;20393;-50
2021/07/13 05:00:35;;;;;;;1.17;1.10;;;25.00;46.70;;;;;;5020533;28;20806;-47
2021/07/13 05:03:02;;;;;;;1.30;1.20;;;25.00;46.70;;;;;;5024561;28;20290;-46
2021/07/13 05:05:28;;;;;;;1.23;1.13;;;25.00;46.70;;;;;;5019523;28;20236;-47
2021/07/13 05:07:54;;;;;;;1.02;1.02;;;25.00;46.70;;;;;;5007376;28;20221;-46
2021/07/13 05:10:21;;;;;;;1.45;1.35;;;25.00;46.70;;;;;;5017776;28;20222;-43
2021/07/13 05:12:47;;;;;;;1.40;1.30;;;25.00;46.70;;;;;;5018937;28;20558;-44
2021/07/13 05:15:14;;;;;;;1.30;1.20;;;25.00;46.70;;;;;;5014693;28;20291;-45
2021/07/13 05:17:40;;;;;;;1.33;1.23;;;25.00;46.80;;;;;;5026951;28;20286;-43
2021/07/13 05:20:08;;;;;;;2.53;1.23;;;25.00;46.80;;;;;;5028926;28;20238;-49
2021/07/13 05:22:35;;;;;;;1.35;1.25;;;25.00;46.70;;;;;;5020148;28;20206;-49
2021/07/13 05:25:01;;;;;;;1.02;1.02;;;25.00;46.60;;;;;;5030033;28;20214;-48
2021/07/13 05:27:27;;;;;;;4.60;1.17;;;25.00;46.70;;;;;;5017839;28;20642;-49
2021/07/13 05:29:54;;;;;;;1.40;1.30;;;25.00;46.70;;;;;;5021729;28;21968;-44
2021/07/13 05:32:20;;;;;;;1.40;1.30;;;25.00;46.80;;;;;;5010276;28;20203;-43
2021/07/13 05:34:47;;;;;;;1.20;1.10;;;25.00;46.70;;;;;;5029647;28;20241;-49
2021/07/13 05:37:13;;;;;;;1.50;1.40;;;25.00;46.70;;;;;;5019160;28;20619;-44
2021/07/13 05:39:40;;;;;;;1.33;1.20;;;25.00;46.70;;;;;;5027804;28;20614;-45
2021/07/13 05:42:07;;;;;;;1.50;1.40;;;25.00;46.70;;;;;;5016126;28;20199;-46
2021/07/13 05:44:33;;;;;;;1.65;1.10;;;25.00;46.70;;;;;;5010538;28;20213;-50
2021/07/13 05:46:59;;;;;;;1.33;1.00;;;25.00;46.70;;;;;;5013477;28;20889;-48
2021/07/13 05:49:26;;;;;;;1.25;1.15;;;25.00;46.70;;;;;;5018135;28;20593;-47
2021/07/13 05:51:52;;;;;;;3.72;1.25;;;25.00;46.70;;;;;;5013711;28;20666;-43
2021/07/13 05:54:19;;;;;;;1.23;1.15;;;25.00;46.70;;;;;;5010699;28;20211;-46
2021/07/13 05:56:45;;;;;;;1.40;1.30;;;25.00;46.60;;;;;;5015164;28;20205;-48
2021/07/13 05:59:12;;;;;;;1.08;1.08;;;25.00;46.70;;;;;;5018658;28;20649;-48
2021/07/13 06:01:39;;;;;;;1.25;1.15;;;25.00;46.70;;;;;;5026842;28;20209;-50
2021/07/13 06:04:05;;;;;;;1.40;1.30;;;25.00;46.70;;;;;;5020754;28;20199;-49
2021/07/13 06:06:32;;;;;;;1.33;1.20;;;25.00;46.60;;;;;;5013955;28;20231;-50
2021/07/13 06:08:58;;;;;;;1.17;1.10;;;25.00;46.80;;;;;;5018758;28;20228;-54
2021/07/13 06:11:25;;;;;;;2.38;1.20;;;25.00;46.50;;;;;;5017994;28;20203;-46
2021/07/13 06:13:51;;;;;;;2.08;1.00;;;25.00;46.90;;;;;;5010600;28;20204;-50
2021/07/13 06:16:17;;;;;;;1.38;1.15;;;25.00;46.90;;;;;;5008430;28;20233;-46
2021/07/13 06:18:44;;;;;;;1.80;1.20;;;25.00;46.80;;;;;;5015903;28;20199;-44
2021/07/13 06:21:10;;;;;;;3.95;1.20;;;25.00;46.70;;;;;;5021990;28;20231;-43
2021/07/13 06:23:37;;;;;;;3.50;1.23;;;25.00;46.60;;;;;;5018780;28;20233;-47
2021/07/13 06:26:03;;;;;;;3.15;1.20;;;25.10;46.60;;;;;;5001326;28;20224;-51
2021/07/13 06:28:30;;;;;;;5.75;2.03;;;25.10;46.70;;;;;;5010438;28;20224;-48
2021/07/13 06:30:56;;;;;;;4.35;3.08;;;25.00;48.60;;;;;;5012252;28;20241;-45
2021/07/13 06:33:22;;;;;;;6.57;3.17;;;24.40;50.80;;;;;;5011432;28;20195;-48
2021/07/13 06:35:49;;;;;;;8.32;3.33;;;24.00;52.20;;;;;;5017371;28;20574;-49
2021/07/13 06:38:16;;;;;;;3.58;2.60;;;24.30;51.10;;;;;;5033149;28;20654;-46
2021/07/13 06:40:42;;;;;;;9.70;3.35;;;24.40;50.60;;;;;;5013395;28;20226;-46
2021/07/13 06:43:08;;;;;;;3.92;2.53;;;24.50;50.00;;;;;;5012944;28;20199;-46
2021/07/13 06:45:35;;;;;;;3.67;3.00;;;24.60;49.60;;;;;;5014769;28;20206;-48
2021/07/13 06:48:01;;;;;;;4.80;2.80;;;24.70;49.20;;;;;;5011857;28;20202;-51
2021/07/13 06:50:28;;;;;;;4.57;2.80;;;24.70;49.70;;;;;;5004371;28;20329;-51
2021/07/13 06:52:54;;;;;;;4.90;2.42;;;24.70;49.70;;;;;;5008145;28;20199;-47
2021/07/13 06:55:21;;;;;;;3.05;2.58;;;24.80;49.80;;;;;;5006342;28;20535;-46
2021/07/13 06:57:47;;;;;;;2.55;2.35;;;24.80;49.80;;;;;;5019062;28;20219;-49
2021/07/13 07:00:13;;;;;;;2.45;2.15;;;24.80;49.70;;;;;;5013075;28;20325;-47
2021/07/13 07:02:40;;;;;;;2.67;2.47;;;24.90;49.10;;;;;;5012006;28;20677;-48
2021/07/13 07:05:06;;;;;;;2.85;2.42;;;24.90;49.20;;;;;;5013434;28;20659;-49
2021/07/13 07:07:33;;;;;;;4.97;2.50;;;24.90;48.80;;;;;;5012183;28;20231;-49
2021/07/13 07:09:59;;;;;;;3.10;2.28;;;24.90;48.90;;;;;;5012677;28;20230;-48
2021/07/13 07:12:26;;;;;;;3.75;2.10;;;25.00;49.00;;;;;;5018092;28;20211;-50
2021/07/13 07:14:52;;;;;;;2.35;1.80;;;25.00;48.60;;;;;;5012963;28;20286;-50
2021/07/13 07:17:19;;;;;;;3.08;2.40;;;25.00;48.60;;;;;;5013701;28;20214;-48
2021/07/13 07:19:45;;;;;;;2.85;2.40;;;25.00;48.50;;;;;;5011534;28;20227;-44
2021/07/13 07:22:11;;;;;;;3.35;2.17;;;25.00;48.60;;;;;;5015490;28;20210;-47
2021/07/13 07:24:38;;;;;;;2.72;2.35;;;25.00;48.90;;;;;;5012750;28;20204;-45
2021/07/13 07:27:04;;;;;;;2.60;2.40;;;25.00;48.50;;;;;;5008266;28;20231;-50
2021/07/13 07:29:31;;;;;;;2.30;2.10;;;25.00;49.20;;;;;;5010889;28;20219;-49
2021/07/13 07:31:57;;;;;;;2.50;2.25;;;25.00;48.50;;;;;;5019428;28;20302;-51
2021/07/13 07:34:24;;;;;;;2.75;2.13;;;25.10;48.60;;;;;;5022355;28;20203;-50
2021/07/13 07:36:50;;;;;;;2.47;2.28;;;25.00;49.00;;;;;;5017724;28;20199;-46
2021/07/13 07:39:17;;;;;;;2.72;2.53;;;25.00;49.60;;;;;;5009669;28;20235;-51
2021/07/13 07:41:43;;;;;;;3.58;2.60;;;25.00;48.80;;;;;;5024352;28;20209;-51
2021/07/13 07:44:09;;;;;;;2.50;2.30;;;25.00;49.10;;;;;;5020648;28;20213;-52
2021/07/13 07:46:41;;;;;;;2.92;2.70;;;25.00;49.60;;;;;;5025337;28;20228;-47
2021/07/13 07:49:08;;;;;;;2.72;2.38;;;25.00;48.80;;;;;;5016938;28;20340;-54
2021/07/13 07:51:34;;;;;;;3.25;2.60;;;25.00;48.60;;;;;;5010465;28;20314;-52
2021/07/13 07:54:00;;;;;;;5.60;3.13;;;25.00;48.50;;;;;;5017923;28;20740;-51
2021/07/13 07:56:27;;;;;;;3.55;2.75;;;25.00;49.10;;;;;;5012878;28;20207;-49
2021/07/13 07:58:53;;;;;;;4.05;2.90;;;25.00;49.20;;;;;;5004627;28;20231;-53
2021/07/13 08:01:20;;;;;;;2.53;2.33;;;25.00;49.40;;;;;;5019239;28;20202;-50
2021/07/13 08:03:46;;;;;;;3.78;3.03;;;25.10;49.20;;;;;;5027845;28;20209;-50
2021/07/13 08:06:13;;;;;;;3.08;2.78;;;25.10;49.20;;;;;;5011594;28;20239;-51
2021/07/13 08:08:39;;;;;;;3.30;3.00;;;25.10;49.20;;;;;;5011920;28;20794;-53
2021/07/13 08:11:06;;;;;;;3.45;2.92;;;25.10;48.90;;;;;;5011120;28;20671;-51
2021/07/13 08:13:32;;;;;;;3.35;3.05;;;25.10;48.70;;;;;;5012467;28;20286;-48
2021/07/13 08:15:58;;;;;;;4.50;3.30;;;25.10;48.60;;;;;;5011028;28;20345;-50
2021/07/13 08:18:25;;;;;;;3.95;3.40;;;25.00;48.60;;;;;;5011877;28;20312;-50
2021/07/13 08:20:51;;;;;;;3.90;3.60;;;25.10;48.60;;;;;;5011774;28;20199;-52
2021/07/13 08:23:18;;;;;;;4.00;3.58;;;25.10;48.60;;;;;;5011935;28;20211;-51
2021/07/13 08:25:44;;;;;;;4.28;3.88;;;25.00;48.50;;;;;;5010324;28;20206;-52
2021/07/13 08:28:11;;;;;;;5.68;4.25;;;25.00;48.60;;;;;;5011055;28;20233;-48
2021/07/13 08:30:37;;;;;;;4.35;3.95;;;25.00;48.60;;;;;;5012474;28;20290;-50
2021/07/13 08:33:03;;;;;;;4.13;3.80;;;25.10;48.60;;;;;;5010113;28;20221;-47
2021/07/13 08:35:30;;;;;;;3.70;3.40;;;25.00;48.60;;;;;;5010320;28;20203;-47
2021/07/13 08:37:56;;;;;;;4.28;3.88;;;25.00;48.50;;;;;;5011467;28;20281;-49
2021/07/13 08:40:24;;;;;;;3.80;3.50;;;25.00;48.50;;;;;;5012274;28;20203;-51
2021/07/13 08:42:50;;;;;;;3.85;3.55;;;25.10;48.60;;;;;;5010147;28;20245;-48
2021/07/13 08:45:17;;;;;;;4.20;3.90;;;25.00;48.50;;;;;;5010606;28;20279;-53
2021/07/13 08:47:43;;;;;;;4.20;3.80;;;25.00;48.50;;;;;;5010197;28;20246;-50
2021/07/13 08:50:10;;;;;;;4.28;3.88;;;25.00;48.50;;;;;;5010983;28;20220;-53
2021/07/13 08:52:36;;;;;;;4.60;4.18;;;25.00;48.40;;;;;;5011039;28;20202;-47
2021/07/13 08:55:03;;;;;;;5.10;4.70;;;25.00;48.10;;;;;;5010691;28;20202;-52
2021/07/13 08:57:29;;;;;;;5.00;4.18;;;25.00;48.10;;;;;;5025184;28;20209;-49
2021/07/13 08:59:55;;;;;;;4.80;4.40;;;25.00;48.00;;;;;;5011100;28;20317;-48
2021/07/13 09:02:22;;;;;;;5.15;4.22;;;25.00;48.10;;;;;;5010363;28;20195;-52
2021/07/13 09:04:48;;;;;;;5.07;4.68;;;25.00;48.00;;;;;;5011077;28;20291;-48
2021/07/13 09:07:15;;;;;;;5.10;4.63;;;25.00;48.00;;;;;;5010435;28;20794;-48
2021/07/13 09:09:44;;;;;;;5.28;4.88;;;25.00;48.00;;;;;;5007739;28;20531;-47
2021/07/13 09:12:11;;;;;;;5.25;4.85;;;25.00;48.00;;;;;;5007893;28;20294;-52
2021/07/13 09:14:37;;;;;;;5.32;4.82;;;25.00;48.30;;;;;;5011455;28;20207;-52
2021/07/13 09:17:04;;;;;;;5.10;4.40;;;25.00;48.30;;;;;;5010652;28;20205;-49
2021/07/13 09:19:30;;;;;;;4.88;4.47;;;25.00;48.40;;;;;;5009324;28;20251;-48
2021/07/13 09:21:57;;;;;;;4.13;3.83;;;25.00;48.30;;;;;;5023276;28;20277;-48
2021/07/13 09:24:23;;;;;;;4.43;4.03;;;25.00;48.40;;;;;;5009978;28;20204;-47
2021/07/13 09:26:49;;;;;;;5.03;4.53;;;25.00;48.30;;;;;;5022186;28;20225;-47
2021/07/13 09:29:16;;;;;;;4.93;4.53;;;25.00;47.90;;;;;;5020113;28;20219;-49
2021/07/13 09:31:42;;;;;;;4.90;4.45;;;25.00;48.10;;;;;;5008207;28;20199;-49
2021/07/13 09:34:09;;;;;;;4.70;4.25;;;25.00;48.30;;;;;;5007152;28;20199;-45
2021/07/13 09:36:35;;;;;;;4.88;4.40;;;25.00;48.00;;;;;;5015469;28;20296;-43
2021/07/13 09:39:02;;;;;;;4.05;3.65;;;25.00;48.50;;;;;;5023724;28;20219;-49
2021/07/13 09:41:30;;;;;;;4.47;4.18;;;25.10;48.60;;;;;;5015026;28;20298;-53
2021/07/13 09:43:59;;;;;;;4.88;4.38;;;25.00;48.50;;;;;;5020873;28;20210;-51
2021/07/13 09:46:25;;;;;;;4.45;4.07;;;25.00;48.30;;;;;;5020762;28;20234;-47
2021/07/13 09:48:52;;;;;;;4.50;4.07;;;25.10;48.60;;;;;;5012720;28;20235;-49
2021/07/13 09:51:18;;;;;;;4.18;3.88;;;25.10;48.20;;;;;;5007720;28;20261;-50
2021/07/13 09:53:45;;;;;;;4.18;3.78;;;25.10;48.30;;;;;;4990741;28;20214;-44
2021/07/13 09:56:12;;;;;;;10.93;4.35;;;25.10;48.20;;;;;;4994184;28;20232;-49
2021/07/13 09:58:40;;;;;;;4.20;3.90;;;25.10;48.20;;;;;;5001789;28;20231;-49
2021/07/13 10:01:06;;;;;;;4.00;3.70;;;25.10;48.10;;;;;;5003012;28;20314;-45
2021/07/13 10:03:33;;;;;;;4.43;4.03;;;25.10;48.00;;;;;;4995175;28;20213;-48
2021/07/13 10:06:00;;;;;;;4.45;4.05;;;25.10;47.90;;;;;;5010604;28;20213;-47
2021/07/13 10:08:27;;;;;;;5.32;4.20;;;25.10;47.90;;;;;;5001963;28;20240;-51
2021/07/13 10:10:53;;;;;;;4.05;3.75;;;25.10;48.30;;;;;;5012800;28;20628;-48
2021/07/13 10:13:20;;;;;;;4.38;3.97;;;25.10;48.20;;;;;;5021157;28;20654;-47
2021/07/13 10:15:48;;;;;;;6.03;4.13;;;25.10;48.20;;;;;;5017232;28;20642;-54
2021/07/13 10:18:14;;;;;;;3.13;2.92;;;25.00;48.50;;;;;;5018615;28;20329;-47
2021/07/13 10:20:41;;;;;;;2.63;2.40;;;25.00;47.80;;;;;;5013911;28;20205;-51
2021/07/13 10:23:07;;;;;;;2.80;2.17;;;25.00;47.40;;;;;;5015362;28;20238;-48
2021/07/13 10:25:34;;;;;;;2.47;2.13;;;24.90;47.10;;;;;;5032477;28;20620;-51
2021/07/13 10:28:00;;;;;;;2.28;2.08;;;25.00;47.20;;;;;;5017363;28;20250;-45
2021/07/13 10:30:27;;;;;;;2.78;1.73;;;24.90;46.90;;;;;;5001182;28;20267;-53
2021/07/13 10:32:53;;;;;;;1.80;1.50;;;24.90;46.70;;;;;;5017147;28;20216;-56
2021/07/13 10:35:26;;;;;;;1.38;1.30;;;24.90;46.50;;;;;;5010694;28;20205;-51
2021/07/13 10:37:52;;;;;;;1.88;1.42;;;24.90;46.30;;;;;;5013708;28;20305;-48
2021/07/13 10:40:19;;;;;;;2.20;1.50;;;24.90;46.40;;;;;;5007670;28;20209;-49
2021/07/13 10:42:46;;;;;;;4.20;2.42;;;24.90;46.50;;;;;;5009099;28;20210;-49
2021/07/13 10:45:12;;;;;;;5.05;4.55;;;24.90;46.50;;;;;;5010330;28;20206;-49
2021/07/13 10:47:39;;;;;;;17.52;15.13;;;24.90;46.30;;;;;;5013498;28;20250;-47
2021/07/13 10:50:05;;;;;;;14.15;12.27;;;24.90;46.00;;;;;;5014579;28;20206;-51
2021/07/13 10:52:32;;;;;;;16.02;11.25;;;24.90;45.90;;;;;;5006892;28;20237;-46
2021/07/13 10:54:58;;;;;;;12.68;9.25;;;24.90;45.50;;;;;;5016143;28;20203;-48
2021/07/13 10:57:25;;;;;;;9.60;7.72;;;24.90;45.60;;;;;;5013840;28;20228;-50
2021/07/13 10:59:51;;;;;;;5.82;5.22;;;24.90;45.30;;;;;;5013400;28;20210;-53
2021/07/13 11:02:18;;;;;;;8.13;4.43;;;24.80;45.00;;;;;;5012611;28;20369;-51
2021/07/13 11:04:44;;;;;;;4.03;3.33;;;24.80;45.30;;;;;;5014551;28;20225;-52
2021/07/13 11:07:12;;;;;;;4.00;2.70;;;24.80;44.40;;;;;;5010714;28;20239;-51
2021/07/13 11:09:38;;;;;;;2.72;2.50;;;24.80;44.30;;;;;;5014832;28;20203;-52
2021/07/13 11:12:04;;;;;;;2.03;1.92;;;24.80;44.00;;;;;;5013693;28;20214;-50
2021/07/13 11:14:31;;;;;;;1.70;1.60;;;24.80;43.90;;;;;;5020458;28;20682;-48
2021/07/13 11:16:57;;;;;;;1.30;1.20;;;24.80;43.60;;;;;;5014352;28;20606;-48
2021/07/13 11:19:23;;;;;;;1.25;1.17;;;24.80;43.60;;;;;;5012535;28;20572;-53
2021/07/13 11:21:50;;;;;;;2.50;1.23;;;24.80;43.60;;;;;;5019731;28;20206;-49
2021/07/13 11:24:16;;;;;;;1.23;1.00;;;24.80;43.00;;;;;;5025829;28;20227;-50
2021/07/13 11:26:44;;;;;;;1.15;1.05;;;24.70;42.60;;;;;;5014201;28;20199;-50
2021/07/13 11:29:11;;;;;;;2.05;1.00;;;24.70;42.70;;;;;;5019742;28;20294;-45
2021/07/13 11:31:37;;;;;;;1.40;0.90;;;24.70;42.30;;;;;;5023972;28;20195;-51
2021/07/13 11:34:04;;;;;;;0.90;0.80;;;24.60;41.90;;;;;;5014703;28;20230;-48
2021/07/13 11:36:30;;;;;;;2.10;0.88;;;24.60;41.90;;;;;;5015372;28;20282;-49
2021/07/13 11:38:57;;;;;;;2.50;0.80;;;24.60;41.70;;;;;;5023216;28;20226;-48
2021/07/13 11:41:24;;;;;;;1.83;0.93;;;24.60;41.50;;;;;;5027960;28;20198;-52
2021/07/13 11:43:50;;;;;;;0.77;0.70;;;24.60;41.40;;;;;;5018804;28;20659;-50
2021/07/13 11:46:17;;;;;;;0.73;0.73;;;24.60;41.50;;;;;;5006406;28;20249;-53
2021/07/13 11:48:44;;;;;;;0.80;0.80;;;24.50;41.10;;;;;;5014895;28;20234;-46
2021/07/13 11:51:10;;;;;;;2.20;0.75;;;24.50;41.20;;;;;;5027592;28;20207;-54
2021/07/13 11:53:37;;;;;;;0.80;0.70;;;24.50;41.10;;;;;;5030075;28;20741;-53
2021/07/13 11:56:03;;;;;;;2.25;0.77;;;24.50;41.10;;;;;;5008119;28;20642;-53
2021/07/13 11:58:30;;;;;;;1.00;0.70;;;24.50;41.00;;;;;;5014151;28;21183;-48
2021/07/13 12:00:57;;;;;;;0.65;0.65;;;24.50;40.80;;;;;;4994278;28;20621;-49
2021/07/13 12:03:23;;;;;;;0.60;0.60;;;24.50;40.80;;;;;;5022018;28;20726;-54
2021/07/13 12:05:50;;;;;;;1.42;0.57;;;24.50;40.80;;;;;;5028076;28;20654;-45
2021/07/13 12:08:16;;;;;;;0.60;0.60;;;24.50;40.60;;;;;;5020657;28;20249;-50
2021/07/13 12:10:42;;;;;;;0.75;0.75;;;24.50;40.60;;;;;;5027499;28;20670;-47
2021/07/13 12:13:09;;;;;;;0.50;0.50;;;24.50;40.60;;;;;;5018827;28;20611;-51
2021/07/13 12:15:35;;;;;;;0.60;0.60;;;24.40;40.20;;;;;;5010636;28;20619;-52
2021/07/13 12:18:02;;;;;;;0.70;0.70;;;24.40;40.20;;;;;;5021369;28;20718;-50
2021/07/13 12:20:28;;;;;;;1.50;0.60;;;24.40;40.20;;;;;;4999397;28;20678;-50
2021/07/13 12:22:55;;;;;;;1.77;0.80;;;24.40;40.10;;;;;;5023887;28;20399;-51
2021/07/13 12:25:21;;;;;;;1.67;0.70;;;24.50;40.20;;;;;;5027263;28;20240;-51
2021/07/13 12:27:48;;;;;;;0.60;0.60;;;24.50;40.20;;;;;;5018044;28;20240;-52
2021/07/13 12:30:15;;;;;;;1.50;0.70;;;24.50;40.20;;;;;;5011436;28;20207;-49
2021/07/13 12:32:42;;;;;;;0.50;0.50;;;24.50;40.20;;;;;;5022757;28;20249;-49
2021/07/13 12:35:11;;;;;;;0.55;0.55;;;24.50;40.80;;;;;;5009249;28;20203;-49
2021/07/13 12:37:37;;;;;;;2.47;0.80;;;24.50;40.00;;;;;;5018847;28;20227;-52
2021/07/13 12:40:04;;;;;;;0.60;0.60;;;24.40;40.10;;;;;;5016297;28;20638;-53